Time;durP1;ratioP1;P1;durP2;ratioP2;P2;SDS_P1;SDS_P2;PMS_P1;PMS_P2;Temp;Humidity;BMP_temperature;BMP_pressure;BME280_temperature;BME280_humidity;BME280_pressure;Samples;Min_cycle;Max_cycle;Signal;HPM_P1;HPM_P2
2021/08/17 00:00:34;;;;;;;2.80;2.40;;;;;;;;;;4917496;29;20031;-74
2021/08/17 00:03:00;;;;;;;5.45;2.70;;;;;;;;;;4916951;29;20382;-74
2021/08/17 00:05:26;;;;;;;4.10;2.30;;;;;;;;;;4917196;29;20533;-74
2021/08/17 00:07:52;;;;;;;5.75;3.25;;;;;;;;;;4917184;29;20050;-74
2021/08/17 00:10:18;;;;;;;4.60;3.30;;;;;;;;;;4917127;29;20032;-74
2021/08/17 00:12:44;;;;;;;3.92;2.90;;;;;;;;;;4917244;29;20040;-74
2021/08/17 00:15:11;;;;;;;2.67;2.47;;;;;;;;;;4916783;29;20485;-74
2021/08/17 00:17:37;;;;;;;5.63;2.67;;;;;;;;;;4917187;29;20036;-74
2021/08/17 00:20:04;;;;;;;4.70;2.80;;;;;;;;;;4917196;29;20063;-74
2021/08/17 00:22:30;;;;;;;5.03;3.35;;;;;;;;;;4917269;29;20029;-73
2021/08/17 00:24:56;;;;;;;5.13;3.00;;;;;;;;;;4921145;29;20160;-73
2021/08/17 00:27:22;;;;;;;3.65;3.35;;;;;;;;;;4920575;29;20521;-74
2021/08/17 00:29:48;;;;;;;5.30;3.20;;;;;;;;;;4920618;29;20458;-73
2021/08/17 00:32:15;;;;;;;7.25;2.97;;;;;;;;;;4920764;29;20024;-73
2021/08/17 00:34:41;;;;;;;4.13;2.58;;;;;;;;;;4920353;29;20032;-74
2021/08/17 00:37:07;;;;;;;5.10;2.72;;;;;;;;;;4920144;29;20059;-74
2021/08/17 00:39:33;;;;;;;3.88;2.70;;;;;;;;;;4920544;29;20106;-74
2021/08/17 00:42:00;;;;;;;3.00;2.47;;;;;;;;;;4920723;29;20028;-74
2021/08/17 00:44:26;;;;;;;4.05;2.53;;;;;;;;;;4920772;29;20033;-74
2021/08/17 00:46:53;;;;;;;3.60;2.38;;;;;;;;;;4920757;29;20440;-74
2021/08/17 00:49:20;;;;;;;5.65;2.92;;;;;;;;;;4920189;29;20028;-74
2021/08/17 00:51:46;;;;;;;4.05;2.88;;;;;;;;;;4920613;29;20039;-74
2021/08/17 00:54:12;;;;;;;3.38;2.47;;;;;;;;;;4920595;29;20036;-74
2021/08/17 00:56:38;;;;;;;3.47;2.42;;;;;;;;;;4920666;29;20466;-73
2021/08/17 00:59:05;;;;;;;7.53;2.15;;;;;;;;;;4920542;29;20381;-74
2021/08/17 01:01:32;;;;;;;4.90;2.38;;;;;;;;;;4920446;29;20028;-72
2021/08/17 01:03:59;;;;;;;2.78;2.50;;;;;;;;;;4920443;29;20036;-74
2021/08/17 01:06:26;;;;;;;2.35;2.15;;;;;;;;;;4920364;29;20028;-74
2021/08/17 01:08:52;;;;;;;3.00;2.20;;;;;;;;;;4920281;29;20056;-74
2021/08/17 01:11:18;;;;;;;5.68;2.95;;;;;;;;;;4920134;29;20035;-73
2021/08/17 01:13:44;;;;;;;2.70;2.13;;;;;;;;;;4920141;29;20036;-73
2021/08/17 01:16:11;;;;;;;2.30;2.10;;;;;;;;;;4920258;29;20071;-73
2021/08/17 01:18:37;;;;;;;7.05;2.60;;;;;;;;;;4920047;29;20119;-74
2021/08/17 01:21:07;;;;;;;4.20;2.88;;;;;;;;;;4920034;29;20035;-74
2021/08/17 01:23:34;;;;;;;2.60;2.27;;;;;;;;;;4920609;29;20055;-74
2021/08/17 01:26:00;;;;;;;3.55;2.40;;;;;;;;;;4920171;29;20275;-73
2021/08/17 01:28:26;;;;;;;3.25;2.67;;;;;;;;;;4920075;29;20103;-73
2021/08/17 01:31:00;;;;;;;3.00;2.42;;;;;;;;;;4920160;29;20036;-73
2021/08/17 01:33:26;;;;;;;2.38;2.00;;;;;;;;;;4919273;29;20070;-73
2021/08/17 01:35:52;;;;;;;5.38;2.38;;;;;;;;;;4918117;29;20478;-73
2021/08/17 01:38:18;;;;;;;5.20;2.67;;;;;;;;;;4919234;29;20056;-74
2021/08/17 01:40:44;;;;;;;3.63;2.72;;;;;;;;;;4919525;29;20031;-74
2021/08/17 01:43:10;;;;;;;4.10;2.83;;;;;;;;;;4919378;29;20043;-74
2021/08/17 01:45:36;;;;;;;2.30;2.10;;;;;;;;;;4919452;29;20024;-74
2021/08/17 01:48:02;;;;;;;2.80;2.50;;;;;;;;;;4919185;29;20500;-74
2021/08/17 01:50:28;;;;;;;4.28;2.78;;;;;;;;;;4919656;29;20024;-74
2021/08/17 01:52:54;;;;;;;3.53;2.28;;;;;;;;;;4919467;29;20426;-73
2021/08/17 01:55:21;;;;;;;2.53;2.05;;;;;;;;;;4919027;29;20024;-73
2021/08/17 01:57:47;;;;;;;2.88;2.47;;;;;;;;;;4919301;29;20040;-73
2021/08/17 02:00:13;;;;;;;3.88;2.97;;;;;;;;;;4918919;29;20438;-73
2021/08/17 02:02:39;;;;;;;2.22;1.95;;;;;;;;;;4918815;29;20029;-74
2021/08/17 02:05:05;;;;;;;3.00;2.35;;;;;;;;;;4919143;29;20036;-74
2021/08/17 02:07:31;;;;;;;4.90;2.70;;;;;;;;;;4919105;29;20032;-74
2021/08/17 02:09:57;;;;;;;2.92;2.20;;;;;;;;;;4919148;29;20035;-73
2021/08/17 02:12:23;;;;;;;5.45;2.88;;;;;;;;;;4919096;29;20382;-73
2021/08/17 02:14:50;;;;;;;2.10;1.90;;;;;;;;;;4919100;29;20492;-73
2021/08/17 02:17:16;;;;;;;3.33;2.25;;;;;;;;;;4918270;29;20036;-73
2021/08/17 02:19:42;;;;;;;2.67;2.13;;;;;;;;;;4919479;29;20103;-74
2021/08/17 02:22:08;;;;;;;2.60;2.40;;;;;;;;;;4919211;29;20039;-73
2021/08/17 02:24:34;;;;;;;3.33;2.22;;;;;;;;;;4918750;29;20118;-74
2021/08/17 02:27:00;;;;;;;5.15;2.50;;;;;;;;;;4918748;29;20028;-76
2021/08/17 02:29:26;;;;;;;3.47;2.55;;;;;;;;;;4918726;29;20434;-74
2021/08/17 02:31:52;;;;;;;3.92;2.30;;;;;;;;;;4918617;29;20028;-73
2021/08/17 02:34:18;;;;;;;2.20;1.83;;;;;;;;;;4919031;29;20036;-73
2021/08/17 02:36:44;;;;;;;3.63;2.00;;;;;;;;;;4918893;29;20047;-73
2021/08/17 02:39:10;;;;;;;4.07;2.55;;;;;;;;;;4918131;29;20142;-74
2021/08/17 02:41:36;;;;;;;3.08;2.13;;;;;;;;;;4918607;29;20028;-73
2021/08/17 02:44:02;;;;;;;4.78;2.72;;;;;;;;;;4918480;29;20038;-74
2021/08/17 02:46:28;;;;;;;5.18;2.17;;;;;;;;;;4917966;29;20117;-74
2021/08/17 02:48:54;;;;;;;2.67;2.30;;;;;;;;;;4918526;29;20047;-73
2021/08/17 02:51:20;;;;;;;5.28;2.22;;;;;;;;;;4918287;29;20487;-74
2021/08/17 02:53:47;;;;;;;3.55;2.20;;;;;;;;;;4918448;29;20484;-73
2021/08/17 02:56:13;;;;;;;2.63;2.20;;;;;;;;;;4918267;29;20360;-74
2021/08/17 02:58:39;;;;;;;2.25;2.05;;;;;;;;;;4918196;29;20024;-74
2021/08/17 03:01:05;;;;;;;4.78;2.30;;;;;;;;;;4917840;29;20039;-74
2021/08/17 03:03:31;;;;;;;3.70;2.70;;;;;;;;;;4918944;29;20527;-73
2021/08/17 03:05:57;;;;;;;2.67;2.35;;;;;;;;;;4918307;29;20024;-73
2021/08/17 03:08:23;;;;;;;4.90;2.67;;;;;;;;;;4918442;29;20028;-73
2021/08/17 03:10:49;;;;;;;2.88;2.17;;;;;;;;;;4918352;29;20056;-73
2021/08/17 03:13:15;;;;;;;2.33;2.13;;;;;;;;;;4918109;29;20394;-74
2021/08/17 03:15:41;;;;;;;6.85;2.40;;;;;;;;;;4917722;29;20386;-73
2021/08/17 03:18:08;;;;;;;3.72;2.15;;;;;;;;;;4917986;29;20083;-73
2021/08/17 03:20:34;;;;;;;3.10;2.47;;;;;;;;;;4917986;29;20028;-73
2021/08/17 03:23:00;;;;;;;7.32;2.13;;;;;;;;;;4917534;29;20029;-76
2021/08/17 03:25:26;;;;;;;2.75;2.20;;;;;;;;;;4917747;29;20032;-73
2021/08/17 03:27:53;;;;;;;4.57;2.50;;;;;;;;;;4917593;29;20114;-73
2021/08/17 03:30:19;;;;;;;2.70;2.22;;;;;;;;;;4917727;29;20032;-73
2021/08/17 03:32:45;;;;;;;3.50;2.97;;;;;;;;;;4917908;29;20024;-73
2021/08/17 03:35:11;;;;;;;3.17;2.13;;;;;;;;;;4917484;29;20070;-74
2021/08/17 03:37:38;;;;;;;4.13;2.67;;;;;;;;;;4917696;29;20087;-73
2021/08/17 03:40:06;;;;;;;3.55;2.28;;;;;;;;;;4918155;29;20087;-72
2021/08/17 03:42:32;;;;;;;3.65;2.45;;;;;;;;;;4917488;29;20071;-73
2021/08/17 03:44:58;;;;;;;3.38;2.55;;;;;;;;;;4917361;29;20055;-73
2021/08/17 03:47:24;;;;;;;2.42;1.88;;;;;;;;;;4917379;29;20111;-73
2021/08/17 03:49:50;;;;;;;2.92;2.63;;;;;;;;;;4918140;29;20020;-73
2021/08/17 03:52:16;;;;;;;4.57;2.55;;;;;;;;;;4917641;29;20025;-75
2021/08/17 03:54:42;;;;;;;4.25;2.35;;;;;;;;;;4917593;29;20389;-73
2021/08/17 03:57:09;;;;;;;3.25;2.42;;;;;;;;;;4917177;29;20079;-73
2021/08/17 03:59:35;;;;;;;3.55;2.83;;;;;;;;;;4920552;29;20032;-74
2021/08/17 04:02:01;;;;;;;5.30;2.60;;;;;;;;;;4921296;29;20115;-73
2021/08/17 04:04:27;;;;;;;4.72;2.53;;;;;;;;;;4921489;29;20029;-74
2021/08/17 04:06:53;;;;;;;3.53;2.75;;;;;;;;;;4921408;29;20029;-74
2021/08/17 04:09:19;;;;;;;4.40;2.67;;;;;;;;;;4921031;29;20068;-74
2021/08/17 04:11:45;;;;;;;3.40;2.70;;;;;;;;;;4921205;29;20084;-74
2021/08/17 04:14:11;;;;;;;4.93;2.55;;;;;;;;;;4921267;29;20144;-74
2021/08/17 04:16:37;;;;;;;3.85;2.85;;;;;;;;;;4920817;29;20060;-74
2021/08/17 04:19:03;;;;;;;3.40;2.42;;;;;;;;;;4920740;29;20553;-74
2021/08/17 04:21:29;;;;;;;6.68;2.50;;;;;;;;;;4921337;29;20028;-73
2021/08/17 04:23:58;;;;;;;4.82;2.75;;;;;;;;;;4921104;29;20083;-74
2021/08/17 04:26:24;;;;;;;5.18;2.55;;;;;;;;;;4920938;29;20115;-74
2021/08/17 04:28:50;;;;;;;4.55;2.90;;;;;;;;;;4920606;29;20462;-74
2021/08/17 04:31:16;;;;;;;2.95;2.55;;;;;;;;;;4920738;29;20032;-74
2021/08/17 04:33:42;;;;;;;3.03;2.67;;;;;;;;;;4921470;29;20493;-74
2021/08/17 04:36:08;;;;;;;2.03;1.83;;;;;;;;;;4920667;29;20087;-74
2021/08/17 04:38:34;;;;;;;3.10;2.72;;;;;;;;;;4920521;29;20142;-73
2021/08/17 04:41:01;;;;;;;4.03;2.65;;;;;;;;;;4920381;29;20031;-74
2021/08/17 04:43:27;;;;;;;4.65;2.88;;;;;;;;;;4920157;29;20028;-74
2021/08/17 04:45:53;;;;;;;2.20;2.00;;;;;;;;;;4920401;29;20470;-74
2021/08/17 04:48:19;;;;;;;2.67;2.20;;;;;;;;;;4920855;29;20028;-74
2021/08/17 04:50:45;;;;;;;3.30;2.65;;;;;;;;;;4920560;29;20026;-73
2021/08/17 04:53:11;;;;;;;2.67;2.30;;;;;;;;;;4919962;29;20071;-74
2021/08/17 04:55:37;;;;;;;3.25;2.38;;;;;;;;;;4920035;29;20088;-74
2021/08/17 04:58:05;;;;;;;6.75;2.67;;;;;;;;;;4919883;29;20036;-74
2021/08/17 05:00:31;;;;;;;2.47;2.05;;;;;;;;;;4920110;29;20236;-74
2021/08/17 05:02:57;;;;;;;3.75;2.38;;;;;;;;;;4920266;29;20028;-74
2021/08/17 05:05:24;;;;;;;5.55;2.60;;;;;;;;;;4919775;29;20036;-74
2021/08/17 05:07:51;;;;;;;4.95;2.33;;;;;;;;;;4920443;29;20087;-74
2021/08/17 05:10:18;;;;;;;3.00;2.65;;;;;;;;;;4919956;29;20024;-73
2021/08/17 05:12:45;;;;;;;3.13;2.55;;;;;;;;;;4919622;29;20036;-74
2021/08/17 05:15:11;;;;;;;9.55;2.70;;;;;;;;;;4919637;29;20107;-74
2021/08/17 05:17:37;;;;;;;3.78;2.58;;;;;;;;;;4920290;29;20047;-74
2021/08/17 05:20:04;;;;;;;6.15;2.53;;;;;;;;;;4919739;29;20035;-74
2021/08/17 05:22:30;;;;;;;2.80;2.53;;;;;;;;;;4919727;29;20028;-74
2021/08/17 05:24:56;;;;;;;4.05;2.40;;;;;;;;;;4919451;29;20119;-73
2021/08/17 05:27:22;;;;;;;5.47;2.67;;;;;;;;;;4919549;29;20492;-74
2021/08/17 05:29:52;;;;;;;11.65;2.85;;;;;;;;;;4919631;29;20151;-74
2021/08/17 05:32:18;;;;;;;3.13;2.40;;;;;;;;;;4920045;29;20020;-74
2021/08/17 05:34:44;;;;;;;4.65;2.95;;;;;;;;;;4919593;29;20032;-74
2021/08/17 05:37:10;;;;;;;5.30;1.95;;;;;;;;;;4918976;29;20036;-74
2021/08/17 05:39:36;;;;;;;3.55;2.63;;;;;;;;;;4919212;29;20028;-74
2021/08/17 05:42:03;;;;;;;4.05;2.50;;;;;;;;;;4919406;29;20059;-74
2021/08/17 05:44:29;;;;;;;5.32;2.42;;;;;;;;;;4919528;29;20110;-73
2021/08/17 05:46:55;;;;;;;2.58;2.00;;;;;;;;;;4914184;29;20032;-71
2021/08/17 05:49:21;;;;;;;4.05;2.50;;;;;;;;;;4900210;29;20514;-72
2021/08/17 05:51:47;;;;;;;2.50;2.20;;;;;;;;;;4899818;29;20489;-73
2021/08/17 05:54:14;;;;;;;4.45;2.47;;;;;;;;;;4900355;29;20029;-74
2021/08/17 05:56:40;;;;;;;2.55;2.15;;;;;;;;;;4900407;29;20028;-74
2021/08/17 05:59:06;;;;;;;3.92;2.35;;;;;;;;;;4899862;29;20035;-74
2021/08/17 06:01:32;;;;;;;3.47;2.33;;;;;;;;;;4898895;29;20032;-73
2021/08/17 06:03:58;;;;;;;3.67;2.33;;;;;;;;;;4900650;29;20455;-73
2021/08/17 06:06:24;;;;;;;2.53;2.10;;;;;;;;;;4899979;29;20040;-75
2021/08/17 06:08:51;;;;;;;4.47;2.75;;;;;;;;;;4900318;29;20025;-76
2021/08/17 06:11:17;;;;;;;6.88;2.53;;;;;;;;;;4898661;29;20033;-75
2021/08/17 06:13:43;;;;;;;2.22;1.80;;;;;;;;;;4900496;29;20028;-78
2021/08/17 06:16:10;;;;;;;3.60;2.42;;;;;;;;;;4900236;29;20025;-73
2021/08/17 06:18:36;;;;;;;2.28;1.90;;;;;;;;;;4900432;29;20040;-75
2021/08/17 06:21:02;;;;;;;5.20;2.47;;;;;;;;;;4897995;29;20537;-75
2021/08/17 06:23:28;;;;;;;2.72;1.90;;;;;;;;;;4900458;29;20044;-75
2021/08/17 06:25:54;;;;;;;3.78;2.15;;;;;;;;;;4899664;29;20400;-73
2021/08/17 06:28:20;;;;;;;2.40;1.95;;;;;;;;;;4899858;29;20032;-73
2021/08/17 06:30:46;;;;;;;3.35;2.42;;;;;;;;;;4898994;29;20029;-73
2021/08/17 06:33:12;;;;;;;4.78;2.20;;;;;;;;;;4899728;29;20036;-75
2021/08/17 06:35:38;;;;;;;4.03;2.25;;;;;;;;;;4899722;29;20478;-75
2021/08/17 06:38:04;;;;;;;2.65;2.08;;;;;;;;;;4899336;29;20053;-76
2021/08/17 06:40:30;;;;;;;2.90;2.03;;;;;;;;;;4900060;29;20051;-74
2021/08/17 06:42:56;;;;;;;4.30;2.47;;;;;;;;;;4898021;29;20032;-75
2021/08/17 06:45:22;;;;;;;13.05;2.88;;;;;;;;;;4899691;29;20029;-79
2021/08/17 06:47:50;;;;;;;3.85;2.17;;;;;;;;;;4900407;29;20054;-78
2021/08/17 06:50:16;;;;;;;2.53;2.03;;;;;;;;;;4900156;29;20060;-78
2021/08/17 06:52:43;;;;;;;3.30;2.42;;;;;;;;;;4899485;29;20029;-80
2021/08/17 06:55:09;;;;;;;4.03;3.13;;;;;;;;;;4899453;29;20028;-80
2021/08/17 06:57:35;;;;;;;6.70;2.65;;;;;;;;;;4899492;29;20036;-80
2021/08/17 07:00:02;;;;;;;5.53;2.90;;;;;;;;;;4899558;29;20032;-82
2021/08/17 07:02:28;;;;;;;6.25;2.80;;;;;;;;;;4899683;29;20029;-84
2021/08/17 07:04:54;;;;;;;3.83;2.78;;;;;;;;;;4899655;29;20071;-83
2021/08/17 07:07:20;;;;;;;4.72;2.20;;;;;;;;;;4899335;29;20665;-83
2021/08/17 07:09:46;;;;;;;3.40;2.75;;;;;;;;;;4899448;29;20048;-85
2021/08/17 07:12:12;;;;;;;4.70;2.45;;;;;;;;;;4899441;29;20032;-83
2021/08/17 07:14:38;;;;;;;6.95;2.45;;;;;;;;;;4912308;29;20107;-81
2021/08/17 07:17:04;;;;;;;3.15;2.42;;;;;;;;;;4916492;29;20040;-81
2021/08/17 07:19:31;;;;;;;7.60;2.78;;;;;;;;;;4918194;29;20529;-79
2021/08/17 07:21:57;;;;;;;3.08;2.63;;;;;;;;;;4918460;29;20028;-79
2021/08/17 07:24:24;;;;;;;3.70;2.40;;;;;;;;;;4917453;29;20032;-79
2021/08/17 07:26:50;;;;;;;6.05;2.72;;;;;;;;;;4903628;29;20530;-86
2021/08/17 07:29:16;;;;;;;6.15;3.40;;;;;;;;;;4900749;29;20052;-79
2021/08/17 07:31:42;;;;;;;4.65;2.35;;;;;;;;;;4898210;29;20032;-79
2021/08/17 07:34:08;;;;;;;7.43;2.45;;;;;;;;;;4898819;29;20137;-79
2021/08/17 07:36:36;;;;;;;5.50;3.05;;;;;;;;;;4896867;29;20063;-78
2021/08/17 07:39:03;;;;;;;8.30;2.22;;;;;;;;;;4897206;29;20115;-88
2021/08/17 07:41:29;;;;;;;16.90;2.83;;;;;;;;;;4904377;29;20143;-79
2021/08/17 07:43:55;;;;;;;11.20;2.58;;;;;;;;;;4918117;29;20039;-87
2021/08/17 07:46:21;;;;;;;4.68;1.77;;;;;;;;;;4920162;29;20370;-84
2021/08/17 07:48:47;;;;;;;3.55;2.08;;;;;;;;;;4901435;29;20024;-79
2021/08/17 07:51:13;;;;;;;4.97;1.67;;;;;;;;;;4901405;29;20032;-83
2021/08/17 07:53:39;;;;;;;3.13;2.28;;;;;;;;;;4901326;29;20036;-81
2021/08/17 07:56:06;;;;;;;4.20;2.25;;;;;;;;;;4899775;29;20081;-75
2021/08/17 07:58:32;;;;;;;3.60;1.75;;;;;;;;;;4898251;29;20040;-76
2021/08/17 08:00:59;;;;;;;3.42;2.13;;;;;;;;;;4898858;29;20043;-78
2021/08/17 08:03:25;;;;;;;4.22;2.45;;;;;;;;;;4901199;29;20375;-79
2021/08/17 08:05:51;;;;;;;2.95;1.73;;;;;;;;;;4902426;29;20057;-85
2021/08/17 08:08:17;;;;;;;3.65;1.88;;;;;;;;;;4899724;29;20175;-81
2021/08/17 08:10:45;;;;;;;5.07;1.55;;;;;;;;;;4901932;29;20032;-83
2021/08/17 08:13:11;;;;;;;5.63;1.55;;;;;;;;;;4900800;29;20032;-78
2021/08/17 08:15:37;;;;;;;2.55;1.45;;;;;;;;;;4901533;29;20029;-79
2021/08/17 08:18:03;;;;;;;3.13;1.60;;;;;;;;;;4900217;29;20513;-79
2021/08/17 08:20:33;;;;;;;1.98;1.40;;;;;;;;;;4900232;29;20398;-76
2021/08/17 08:22:59;;;;;;;3.45;1.33;;;;;;;;;;4900026;29;20024;-80
2021/08/17 08:25:25;;;;;;;1.67;1.50;;;;;;;;;;4900918;29;20474;-81
2021/08/17 08:27:52;;;;;;;2.05;1.67;;;;;;;;;;4900518;29;20036;-81
2021/08/17 08:30:19;;;;;;;1.65;1.55;;;;;;;;;;4902982;29;20039;-85
2021/08/17 08:32:45;;;;;;;0.93;0.90;;;;;;;;;;4900670;29;20036;-78
2021/08/17 08:35:12;;;;;;;1.95;1.48;;;;;;;;;;4912406;29;20028;-81
2021/08/17 08:37:40;;;;;;;7.78;1.67;;;;;;;;;;4909785;29;20052;-81
2021/08/17 08:40:07;;;;;;;2.67;1.52;;;;;;;;;;4899752;29;20029;-86
2021/08/17 08:42:33;;;;;;;1.52;1.23;;;;;;;;;;4899960;29;20459;-83
2021/08/17 08:44:59;;;;;;;1.90;1.40;;;;;;;;;;4901534;29;20164;-81
2021/08/17 08:47:25;;;;;;;6.00;1.27;;;;;;;;;;4902358;29;20032;-81
2021/08/17 08:49:52;;;;;;;1.48;1.38;;;;;;;;;;4912137;29;20032;-81
2021/08/17 08:52:18;;;;;;;2.35;1.40;;;;;;;;;;4908136;29;20044;-81
2021/08/17 08:54:45;;;;;;;5.50;1.88;;;;;;;;;;4921307;29;20371;-82
2021/08/17 08:57:11;;;;;;;1.95;1.50;;;;;;;;;;4912361;29;20051;-80
2021/08/17 08:59:37;;;;;;;6.28;1.63;;;;;;;;;;4901817;29;20080;-80
2021/08/17 09:02:07;;;;;;;1.42;1.33;;;;;;;;;;4902213;29;20452;-85
2021/08/17 09:04:33;;;;;;;2.15;1.80;;;;;;;;;;4908442;29;20103;-80
2021/08/17 09:06:59;;;;;;;2.80;2.58;;;;;;;;;;4916281;29;20070;-84
2021/08/17 09:09:25;;;;;;;3.47;2.72;;;;;;;;;;4902938;29;20036;-76
2021/08/17 09:11:53;;;;;;;6.45;2.72;;;;;;;;;;4903776;29;20213;-95
2021/08/17 09:14:20;;;;;;;8.43;3.20;;;;;;;;;;4904726;29;20050;-86
2021/08/17 09:16:46;;;;;;;3.78;2.97;;;;;;;;;;4901270;29;20025;-83
2021/08/17 09:19:29;;;;;;;3.33;3.03;;;;;;;;;;4902059;29;20478;-80
2021/08/17 09:21:56;;;;;;;2.53;2.15;;;;;;;;;;4902094;29;20051;-79
2021/08/17 09:24:24;;;;;;;3.28;2.40;;;;;;;;;;4903046;29;20035;-80
2021/08/17 09:26:52;;;;;;;3.25;2.30;;;;;;;;;;4900651;29;20474;-87
2021/08/17 09:29:27;;;;;;;34.78;14.88;;;;;;;;;;4900734;29;20037;-81
2021/08/17 09:31:53;;;;;;;79.47;27.92;;;;;;;;;;4901532;29;20033;-84
2021/08/17 09:34:19;;;;;;;49.22;16.38;;;;;;;;;;4901864;29;20025;-82
2021/08/17 09:36:46;;;;;;;26.38;11.85;;;;;;;;;;4900494;29;20124;-80
2021/08/17 09:39:12;;;;;;;21.65;10.30;;;;;;;;;;4921340;29;20112;-86
2021/08/17 09:41:39;;;;;;;16.92;8.00;;;;;;;;;;4919067;29;20119;-85
2021/08/17 09:44:06;;;;;;;22.17;8.65;;;;;;;;;;4901808;29;20033;-74
2021/08/17 09:46:33;;;;;;;14.18;7.13;;;;;;;;;;4900055;29;20038;-75
2021/08/17 09:49:19;;;;;;;13.85;5.65;;;;;;;;;;4901781;29;20033;-85
2021/08/17 09:51:45;;;;;;;14.45;6.05;;;;;;;;;;4901551;29;20390;-84
2021/08/17 09:54:12;;;;;;;10.25;6.30;;;;;;;;;;4901069;29;20079;-74
2021/08/17 09:56:38;;;;;;;16.25;5.53;;;;;;;;;;4907681;29;20032;-78
2021/08/17 09:59:05;;;;;;;19.42;6.05;;;;;;;;;;4917324;29;20374;-81
2021/08/17 10:01:31;;;;;;;11.18;4.35;;;;;;;;;;4899848;29;20047;-78
2021/08/17 10:03:59;;;;;;;11.48;5.25;;;;;;;;;;4900066;29;20049;-80
2021/08/17 10:06:25;;;;;;;12.73;5.03;;;;;;;;;;4900536;29;20407;-76
2021/08/17 10:08:51;;;;;;;8.35;4.75;;;;;;;;;;4899867;29;20033;-79
2021/08/17 10:11:18;;;;;;;9.43;5.10;;;;;;;;;;4915497;29;20474;-77
2021/08/17 10:13:45;;;;;;;16.40;4.97;;;;;;;;;;4919023;29;20074;-78
2021/08/17 10:16:11;;;;;;;10.10;5.78;;;;;;;;;;4919240;29;20028;-84
2021/08/17 10:18:37;;;;;;;7.78;5.07;;;;;;;;;;4919033;29;20032;-79
2021/08/17 10:21:03;;;;;;;10.00;4.50;;;;;;;;;;4901580;29;20028;-80
2021/08/17 10:23:29;;;;;;;9.35;5.60;;;;;;;;;;4899528;29;20029;-80
2021/08/17 10:25:56;;;;;;;7.95;4.28;;;;;;;;;;4899641;29;20028;-75
2021/08/17 10:28:23;;;;;;;6.97;4.57;;;;;;;;;;4899275;29;20091;-80
2021/08/17 10:30:49;;;;;;;6.63;4.43;;;;;;;;;;4898144;29;20031;-76
2021/08/17 10:33:35;;;;;;;9.40;5.45;;;;;;;;;;4899646;29;20021;-77
2021/08/17 10:36:02;;;;;;;5.53;4.15;;;;;;;;;;4887501;29;20032;-80
2021/08/17 10:38:38;;;;;;;6.55;4.47;;;;;;;;;;4901997;29;20060;-76
2021/08/17 10:41:06;;;;;;;6.53;4.30;;;;;;;;;;4915619;29;20516;-83
2021/08/17 10:43:52;;;;;;;13.82;4.97;;;;;;;;;;4903676;29;20423;-79
2021/08/17 10:46:18;;;;;;;7.75;4.65;;;;;;;;;;4901343;29;20035;-78
2021/08/17 10:48:54;;;;;;;5.07;3.97;;;;;;;;;;4918186;29;20394;-79
2021/08/17 10:51:40;;;;;;;6.28;4.35;;;;;;;;;;4917631;29;20052;-79
2021/08/17 10:54:15;;;;;;;8.75;5.45;;;;;;;;;;4902073;29;20024;-79
2021/08/17 10:56:41;;;;;;;7.63;6.32;;;;;;;;;;4900430;29;20039;-76
2021/08/17 10:59:07;;;;;;;11.40;7.57;;;;;;;;;;4899085;29;20031;-78
2021/08/17 11:01:48;;;;;;;12.25;6.68;;;;;;;;;;4898918;29;20394;-77
2021/08/17 11:04:19;;;;;;;14.15;6.38;;;;;;;;;;4897204;29;20069;-79
2021/08/17 11:06:48;;;;;;;8.20;5.63;;;;;;;;;;4898714;29;20107;-79
2021/08/17 11:09:15;;;;;;;5.93;4.85;;;;;;;;;;4897490;29;20037;-78
2021/08/17 11:11:42;;;;;;;8.90;5.18;;;;;;;;;;4898144;29;20471;-79
2021/08/17 11:14:11;;;;;;;7.88;5.78;;;;;;;;;;4898813;29;20039;-78
2021/08/17 11:16:41;;;;;;;8.35;4.45;;;;;;;;;;4898610;29;20120;-77
2021/08/17 11:19:07;;;;;;;8.30;5.53;;;;;;;;;;4898286;29;20028;-79
2021/08/17 11:21:34;;;;;;;8.30;4.85;;;;;;;;;;4898825;29;20032;-78
2021/08/17 11:24:10;;;;;;;6.40;4.25;;;;;;;;;;4898684;29;20478;-78
2021/08/17 11:26:36;;;;;;;7.60;4.75;;;;;;;;;;4898832;29;20032;-78
2021/08/17 11:29:02;;;;;;;6.53;4.05;;;;;;;;;;4898024;29;20111;-78
2021/08/17 11:31:29;;;;;;;4.82;3.45;;;;;;;;;;4898279;29;20032;-78
2021/08/17 11:34:14;;;;;;;6.97;5.13;;;;;;;;;;4899967;29;20385;-78
2021/08/17 11:36:41;;;;;;;4.47;3.95;;;;;;;;;;4885292;29;20036;-78
2021/08/17 11:39:17;;;;;;;6.78;3.97;;;;;;;;;;4898770;29;20477;-77
2021/08/17 11:41:44;;;;;;;6.38;3.90;;;;;;;;;;4917167;29;20044;-77
2021/08/17 11:44:12;;;;;;;6.38;4.05;;;;;;;;;;4917666;29;20435;-78
2021/08/17 11:46:38;;;;;;;4.93;3.15;;;;;;;;;;4917492;29;20028;-78
2021/08/17 11:49:24;;;;;;;5.13;3.75;;;;;;;;;;4916838;29;20036;-79
2021/08/17 11:52:06;;;;;;;6.70;3.92;;;;;;;;;;4916138;29;20032;-78
2021/08/17 11:54:33;;;;;;;6.47;3.58;;;;;;;;;;4917121;29;20040;-78
2021/08/17 11:57:00;;;;;;;6.85;3.97;;;;;;;;;;4917007;29;20442;-78
2021/08/17 11:59:26;;;;;;;5.50;3.58;;;;;;;;;;4917220;29;20116;-77
2021/08/17 12:01:59;;;;;;;3.70;3.30;;;;;;;;;;4917639;29;20070;-78
2021/08/17 12:04:25;;;;;;;4.82;3.72;;;;;;;;;;4917033;29;20035;-77
2021/08/17 12:07:11;;;;;;;3.50;3.20;;;;;;;;;;4916224;29;20051;-78
2021/08/17 12:09:38;;;;;;;4.40;4.00;;;;;;;;;;4916610;29;20056;-78
2021/08/17 12:12:04;;;;;;;4.95;3.58;;;;;;;;;;4916464;29;20120;-77
2021/08/17 12:14:30;;;;;;;4.70;3.47;;;;;;;;;;4916800;29;20030;-79
2021/08/17 12:16:57;;;;;;;4.57;3.38;;;;;;;;;;4916467;29;20079;-79
2021/08/17 12:19:23;;;;;;;6.60;3.13;;;;;;;;;;4917748;29;20115;-78
2021/08/17 12:21:49;;;;;;;4.68;3.80;;;;;;;;;;4920486;29;20366;-79
2021/08/17 12:24:23;;;;;;;4.22;3.47;;;;;;;;;;4920832;29;20067;-79
2021/08/17 12:27:04;;;;;;;3.58;3.28;;;;;;;;;;4920687;29;20430;-79
2021/08/17 12:29:38;;;;;;;5.57;3.55;;;;;;;;;;4920268;29;20035;-79
2021/08/17 12:32:24;;;;;;;5.47;2.90;;;;;;;;;;4919990;29;20040;-78
2021/08/17 12:34:51;;;;;;;4.28;3.08;;;;;;;;;;4919114;29;20028;-77
2021/08/17 12:37:25;;;;;;;3.75;3.25;;;;;;;;;;4917520;29;20058;-81
2021/08/17 12:39:53;;;;;;;4.35;3.00;;;;;;;;;;4919347;29;20032;-78
2021/08/17 12:42:19;;;;;;;3.60;3.30;;;;;;;;;;4909057;29;20020;-78
2021/08/17 12:44:45;;;;;;;4.50;3.78;;;;;;;;;;4920759;29;20040;-77
2021/08/17 12:47:12;;;;;;;2.92;2.72;;;;;;;;;;4920117;29;20052;-82
2021/08/17 12:49:41;;;;;;;3.10;2.63;;;;;;;;;;4921022;29;20031;-83
2021/08/17 12:52:27;;;;;;;3.20;2.90;;;;;;;;;;4919818;29;20103;-87
2021/08/17 12:54:55;;;;;;;4.00;2.97;;;;;;;;;;4920871;29;20426;-83
2021/08/17 12:57:22;;;;;;;3.58;2.75;;;;;;;;;;4921542;29;20063;-83
2021/08/17 12:59:48;;;;;;;6.85;3.22;;;;;;;;;;4922376;29;20024;-86
2021/08/17 13:02:15;;;;;;;4.47;2.90;;;;;;;;;;4916805;29;20032;-83
2021/08/17 13:04:41;;;;;;;3.42;2.78;;;;;;;;;;4910934;29;20406;-82
2021/08/17 13:07:07;;;;;;;3.10;2.80;;;;;;;;;;4908694;29;20107;-78
2021/08/17 13:09:34;;;;;;;4.38;3.00;;;;;;;;;;4921657;29;20025;-86
2021/08/17 13:12:00;;;;;;;3.17;2.53;;;;;;;;;;4922312;29;20028;-85
2021/08/17 13:14:26;;;;;;;3.17;2.88;;;;;;;;;;4921806;29;20036;-83
2021/08/17 13:16:52;;;;;;;3.83;3.00;;;;;;;;;;4921528;29;20180;-79
2021/08/17 13:19:18;;;;;;;4.38;3.47;;;;;;;;;;4921322;29;20470;-82
2021/08/17 13:21:44;;;;;;;2.85;2.63;;;;;;;;;;4920596;29;20036;-88
2021/08/17 13:24:11;;;;;;;15.48;2.70;;;;;;;;;;4919897;29;20029;-85
2021/08/17 13:26:37;;;;;;;4.85;3.33;;;;;;;;;;4915155;29;20084;-83
2021/08/17 13:29:03;;;;;;;3.63;2.83;;;;;;;;;;4900033;29;20064;-84
2021/08/17 13:31:29;;;;;;;4.40;3.28;;;;;;;;;;4900785;29;20045;-83
2021/08/17 13:33:55;;;;;;;2.92;2.65;;;;;;;;;;4900134;29;20033;-83
2021/08/17 13:36:21;;;;;;;4.05;3.25;;;;;;;;;;4900640;29;20025;-83
2021/08/17 13:38:47;;;;;;;11.27;3.55;;;;;;;;;;4899886;29;20147;-84
2021/08/17 13:41:13;;;;;;;2.50;2.30;;;;;;;;;;4900436;29;20040;-85
2021/08/17 13:43:39;;;;;;;3.33;2.53;;;;;;;;;;4899282;29;20037;-83
2021/08/17 13:46:06;;;;;;;4.45;3.45;;;;;;;;;;4899910;29;20043;-85
2021/08/17 13:48:32;;;;;;;4.43;2.47;;;;;;;;;;4899870;29;20028;-79
2021/08/17 13:51:01;;;;;;;2.67;2.47;;;;;;;;;;4899803;29;20104;-83
2021/08/17 13:53:27;;;;;;;7.35;2.67;;;;;;;;;;4899540;29;20073;-79
2021/08/17 13:55:53;;;;;;;3.95;3.13;;;;;;;;;;4899993;29;20025;-82
2021/08/17 13:58:19;;;;;;;2.50;2.30;;;;;;;;;;4899909;29;20080;-81
2021/08/17 14:00:45;;;;;;;4.95;2.50;;;;;;;;;;4899945;29;20482;-81
2021/08/17 14:03:12;;;;;;;2.40;2.15;;;;;;;;;;4899408;29;20500;-82
2021/08/17 14:05:38;;;;;;;2.58;2.28;;;;;;;;;;4899777;29;20035;-81
2021/08/17 14:08:04;;;;;;;3.63;2.25;;;;;;;;;;4899309;29;20089;-81
2021/08/17 14:10:31;;;;;;;3.05;2.30;;;;;;;;;;4899545;29;20033;-81
2021/08/17 14:12:58;;;;;;;6.15;2.15;;;;;;;;;;4899470;29;20032;-81
2021/08/17 14:15:24;;;;;;;5.78;2.15;;;;;;;;;;4899191;29;20027;-81
2021/08/17 14:17:50;;;;;;;3.05;2.30;;;;;;;;;;4899311;29;20039;-81
2021/08/17 14:20:17;;;;;;;2.38;2.17;;;;;;;;;;4899376;29;20127;-81
2021/08/17 14:22:43;;;;;;;3.70;3.28;;;;;;;;;;4899009;29;20033;-81
2021/08/17 14:25:09;;;;;;;2.60;2.25;;;;;;;;;;4898946;29;20024;-85
2021/08/17 14:27:35;;;;;;;2.67;2.47;;;;;;;;;;4899329;29;20434;-81
2021/08/17 14:30:01;;;;;;;3.70;2.67;;;;;;;;;;4899293;29;20040;-83
2021/08/17 14:32:27;;;;;;;3.13;1.80;;;;;;;;;;4899739;29;20134;-83
2021/08/17 14:34:53;;;;;;;2.05;1.90;;;;;;;;;;4899977;29;20024;-84
2021/08/17 14:37:19;;;;;;;3.10;2.20;;;;;;;;;;4898452;29;20507;-81
2021/08/17 14:39:45;;;;;;;5.53;2.65;;;;;;;;;;4900427;29;20382;-82